sensor_id;sensor_type;location;lat;lon;timestamp;pressure;altitude;pressure_sealevel;temperature;humidity
49973;BME280;65693;49.798;10.968;2023-04-26T00:00:25;98136.59;;;11.35;50.03
49973;BME280;65693;49.798;10.968;2023-04-26T00:02:53;98133.94;;;11.35;50.09
49973;BME280;65693;49.798;10.968;2023-04-26T00:05:19;98139.38;;;11.33;49.97
49973;BME280;65693;49.798;10.968;2023-04-26T00:07:47;98136.72;;;11.33;49.99
49973;BME280;65693;49.798;10.968;2023-04-26T00:10:14;98152.63;;;11.33;50.07
49973;BME280;65693;49.798;10.968;2023-04-26T00:12:41;98149.19;;;11.31;50.12
49973;BME280;65693;49.798;10.968;2023-04-26T00:15:08;98147.41;;;11.32;50.06
49973;BME280;65693;49.798;10.968;2023-04-26T00:17:34;98153.78;;;11.29;50.03
49973;BME280;65693;49.798;10.968;2023-04-26T00:20:02;98153.78;;;11.29;49.94
49973;BME280;65693;49.798;10.968;2023-04-26T00:22:31;98158.25;;;11.29;50.06
49973;BME280;65693;49.798;10.968;2023-04-26T00:24:58;98155.69;;;11.27;49.99
49973;BME280;65693;49.798;10.968;2023-04-26T00:27:25;98160.03;;;11.28;49.98
49973;BME280;65693;49.798;10.968;2023-04-26T00:29:51;98163.63;;;11.27;50.01
49973;BME280;65693;49.798;10.968;2023-04-26T00:32:18;98155.69;;;11.27;50.07
49973;BME280;65693;49.798;10.968;2023-04-26T00:34:44;98152.19;;;11.27;49.90
49973;BME280;65693;49.798;10.968;2023-04-26T00:37:11;98163.75;;;11.26;49.95
49973;BME280;65693;49.798;10.968;2023-04-26T00:39:39;98157.69;;;11.23;49.92
49973;BME280;65693;49.798;10.968;2023-04-26T00:42:07;98158.47;;;11.26;49.85
49973;BME280;65693;49.798;10.968;2023-04-26T00:44:33;98160.25;;;11.25;49.93
49973;BME280;65693;49.798;10.968;2023-04-26T00:47:00;98148.97;;;11.21;49.92
49973;BME280;65693;49.798;10.968;2023-04-26T00:49:27;98152.50;;;11.22;49.90
49973;BME280;65693;49.798;10.968;2023-04-26T00:51:54;98150.81;;;11.21;50.15
49973;BME280;65693;49.798;10.968;2023-04-26T00:54:20;98161.41;;;11.21;49.88
49973;BME280;65693;49.798;10.968;2023-04-26T00:56:47;98160.53;;;11.20;50.16
49973;BME280;65693;49.798;10.968;2023-04-26T00:59:18;98156.19;;;11.19;49.99
49973;BME280;65693;49.798;10.968;2023-04-26T01:01:45;98158.75;;;11.21;49.97
49973;BME280;65693;49.798;10.968;2023-04-26T01:04:12;98158.03;;;11.19;50.03
49973;BME280;65693;49.798;10.968;2023-04-26T01:06:40;98158.97;;;11.18;49.89
49973;BME280;65693;49.798;10.968;2023-04-26T01:09:07;98152.72;;;11.19;49.85
49973;BME280;65693;49.798;10.968;2023-04-26T01:11:34;98151.97;;;11.17;49.95
49973;BME280;65693;49.798;10.968;2023-04-26T01:14:01;98156.41;;;11.16;49.86
49973;BME280;65693;49.798;10.968;2023-04-26T01:16:30;98150.25;;;11.16;49.97
49973;BME280;65693;49.798;10.968;2023-04-26T01:19:06;98154.72;;;11.15;49.83
49973;BME280;65693;49.798;10.968;2023-04-26T01:21:33;98165.31;;;11.15;49.97
49973;BME280;65693;49.798;10.968;2023-04-26T01:24:02;98166.16;;;11.16;49.90
49973;BME280;65693;49.798;10.968;2023-04-26T01:26:29;98164.47;;;11.15;50.11
49973;BME280;65693;49.798;10.968;2023-04-26T01:28:56;98166.28;;;11.14;50.05
49973;BME280;65693;49.798;10.968;2023-04-26T01:31:22;98162.00;;;11.12;49.87
49973;BME280;65693;49.798;10.968;2023-04-26T01:33:49;98160.22;;;11.12;49.79
49973;BME280;65693;49.798;10.968;2023-04-26T01:36:15;98162.97;;;11.10;49.94
49973;BME280;65693;49.798;10.968;2023-04-26T01:38:42;98175.28;;;11.12;49.76
49973;BME280;65693;49.798;10.968;2023-04-26T01:41:09;98170.09;;;11.10;49.91
49973;BME280;65693;49.798;10.968;2023-04-26T01:43:36;98171.03;;;11.09;49.88
49973;BME280;65693;49.798;10.968;2023-04-26T01:46:02;98181.75;;;11.07;50.02
49973;BME280;65693;49.798;10.968;2023-04-26T01:48:29;98181.66;;;11.09;49.93
49973;BME280;65693;49.798;10.968;2023-04-26T01:50:55;98181.75;;;11.07;49.91
49973;BME280;65693;49.798;10.968;2023-04-26T01:53:22;98178.22;;;11.07;49.80
49973;BME280;65693;49.798;10.968;2023-04-26T01:55:48;98180.13;;;11.05;49.88
49973;BME280;65693;49.798;10.968;2023-04-26T01:58:16;98179.31;;;11.04;49.83
49973;BME280;65693;49.798;10.968;2023-04-26T02:00:42;98181.00;;;11.05;49.66
49973;BME280;65693;49.798;10.968;2023-04-26T02:03:09;98186.31;;;11.05;49.81
49973;BME280;65693;49.798;10.968;2023-04-26T02:05:36;98184.59;;;11.04;49.74
49973;BME280;65693;49.798;10.968;2023-04-26T02:08:02;98180.25;;;11.03;49.75
49973;BME280;65693;49.798;10.968;2023-04-26T02:10:28;98189.03;;;11.04;49.96
49973;BME280;65693;49.798;10.968;2023-04-26T02:12:55;98183.00;;;11.02;49.62
49973;BME280;65693;49.798;10.968;2023-04-26T02:15:23;98184.81;;;11.01;49.92
49973;BME280;65693;49.798;10.968;2023-04-26T02:17:49;98187.47;;;11.01;49.71
49973;BME280;65693;49.798;10.968;2023-04-26T02:20:18;98182.25;;;11.00;49.75
49973;BME280;65693;49.798;10.968;2023-04-26T02:22:44;98176.22;;;10.98;49.65
49973;BME280;65693;49.798;10.968;2023-04-26T02:25:11;98169.84;;;11.00;49.59
49973;BME280;65693;49.798;10.968;2023-04-26T02:27:37;98175.16;;;11.00;49.86
49973;BME280;65693;49.798;10.968;2023-04-26T02:30:05;98169.94;;;10.99;49.69
49973;BME280;65693;49.798;10.968;2023-04-26T02:32:33;98172.69;;;10.97;49.73
49973;BME280;65693;49.798;10.968;2023-04-26T02:34:59;98177.16;;;10.96;49.64
49973;BME280;65693;49.798;10.968;2023-04-26T02:37:26;98177.16;;;10.96;49.73
49973;BME280;65693;49.798;10.968;2023-04-26T02:39:52;98171.00;;;10.96;49.71
49973;BME280;65693;49.798;10.968;2023-04-26T02:42:18;98169.28;;;10.95;49.68
49973;BME280;65693;49.798;10.968;2023-04-26T02:44:45;98176.28;;;10.96;49.51
49973;BME280;65693;49.798;10.968;2023-04-26T02:47:11;98171.31;;;10.91;49.68
49973;BME280;65693;49.798;10.968;2023-04-26T02:49:39;98175.75;;;10.91;49.88
49973;BME280;65693;49.798;10.968;2023-04-26T02:52:06;98176.72;;;10.90;49.86
49973;BME280;65693;49.798;10.968;2023-04-26T02:54:32;98169.59;;;10.90;49.59
49973;BME280;65693;49.798;10.968;2023-04-26T02:56:58;98173.19;;;10.89;49.49
49973;BME280;65693;49.798;10.968;2023-04-26T02:59:25;98171.50;;;10.88;49.69
49973;BME280;65693;49.798;10.968;2023-04-26T03:01:52;98165.25;;;10.89;49.55
49973;BME280;65693;49.798;10.968;2023-04-26T03:04:18;98180.31;;;10.89;49.60
49973;BME280;65693;49.798;10.968;2023-04-26T03:06:46;98172.38;;;10.89;49.76
49973;BME280;65693;49.798;10.968;2023-04-26T03:09:13;98177.88;;;10.86;49.63
49973;BME280;65693;49.798;10.968;2023-04-26T03:11:39;98174.34;;;10.85;49.71
49973;BME280;65693;49.798;10.968;2023-04-26T03:14:06;98184.97;;;10.85;49.49
49973;BME280;65693;49.798;10.968;2023-04-26T03:16:39;98179.78;;;10.84;49.71
49973;BME280;65693;49.798;10.968;2023-04-26T03:19:06;98182.44;;;10.84;49.59
49973;BME280;65693;49.798;10.968;2023-04-26T03:21:32;98181.47;;;10.85;49.51
49973;BME280;65693;49.798;10.968;2023-04-26T03:24:00;98179.88;;;10.82;49.77
49973;BME280;65693;49.798;10.968;2023-04-26T03:26:27;98179.88;;;10.82;49.59
49973;BME280;65693;49.798;10.968;2023-04-26T03:28:53;98179.00;;;10.81;49.59
49973;BME280;65693;49.798;10.968;2023-04-26T03:31:19;98186.94;;;10.81;49.65
49973;BME280;65693;49.798;10.968;2023-04-26T03:33:47;98182.59;;;10.80;49.66
49973;BME280;65693;49.798;10.968;2023-04-26T03:36:13;98192.38;;;10.80;49.59
49973;BME280;65693;49.798;10.968;2023-04-26T03:38:39;98187.16;;;10.78;49.46
49973;BME280;65693;49.798;10.968;2023-04-26T03:41:08;98192.59;;;10.77;49.56
49973;BME280;65693;49.798;10.968;2023-04-26T03:43:34;98192.59;;;10.77;49.61
49973;BME280;65693;49.798;10.968;2023-04-26T03:46:01;98190.88;;;10.76;49.39
49973;BME280;65693;49.798;10.968;2023-04-26T03:48:27;98192.66;;;10.75;49.66
49973;BME280;65693;49.798;10.968;2023-04-26T03:50:54;98197.13;;;10.75;49.60
49973;BME280;65693;49.798;10.968;2023-04-26T03:53:20;98192.75;;;10.74;49.64
49973;BME280;65693;49.798;10.968;2023-04-26T03:55:47;98192.88;;;10.72;49.59
49973;BME280;65693;49.798;10.968;2023-04-26T03:58:14;98202.53;;;10.73;49.46
49973;BME280;65693;49.798;10.968;2023-04-26T04:00:41;98198.16;;;10.72;49.44
49973;BME280;65693;49.798;10.968;2023-04-26T04:03:08;98197.41;;;10.70;49.42
49973;BME280;65693;49.798;10.968;2023-04-26T04:05:34;98193.81;;;10.71;49.35
49973;BME280;65693;49.798;10.968;2023-04-26T04:08:01;98196.53;;;10.70;49.69
49973;BME280;65693;49.798;10.968;2023-04-26T04:10:28;98199.19;;;10.70;49.31
49973;BME280;65693;49.798;10.968;2023-04-26T04:12:54;98206.28;;;10.69;49.52
49973;BME280;65693;49.798;10.968;2023-04-26T04:15:22;98207.25;;;10.68;49.56
49973;BME280;65693;49.798;10.968;2023-04-26T04:17:48;98215.28;;;10.66;49.57
49973;BME280;65693;49.798;10.968;2023-04-26T04:20:15;98209.03;;;10.67;49.27
49973;BME280;65693;49.798;10.968;2023-04-26T04:22:41;98203.81;;;10.66;49.56
49973;BME280;65693;49.798;10.968;2023-04-26T04:25:09;98215.38;;;10.65;49.42
49973;BME280;65693;49.798;10.968;2023-04-26T04:27:36;98219.72;;;10.66;49.57
49973;BME280;65693;49.798;10.968;2023-04-26T04:30:04;98222.50;;;10.64;49.50
49973;BME280;65693;49.798;10.968;2023-04-26T04:32:33;98221.63;;;10.64;49.34
49973;BME280;65693;49.798;10.968;2023-04-26T04:34:59;98225.22;;;10.63;49.18
49973;BME280;65693;49.798;10.968;2023-04-26T04:37:26;98229.78;;;10.61;49.31
49973;BME280;65693;49.798;10.968;2023-04-26T04:39:53;98229.69;;;10.62;49.00
49973;BME280;65693;49.798;10.968;2023-04-26T04:42:19;98230.53;;;10.63;49.26
49973;BME280;65693;49.798;10.968;2023-04-26T04:44:46;98231.47;;;10.62;48.17
49973;BME280;65693;49.798;10.968;2023-04-26T04:47:14;98237.84;;;10.59;48.23
49973;BME280;65693;49.798;10.968;2023-04-26T04:49:43;98236.31;;;10.55;48.46
49973;BME280;65693;49.798;10.968;2023-04-26T04:52:09;98239.06;;;10.53;48.89
49973;BME280;65693;49.798;10.968;2023-04-26T04:54:36;98234.72;;;10.52;48.74
49973;BME280;65693;49.798;10.968;2023-04-26T04:57:05;98241.81;;;10.52;48.50
49973;BME280;65693;49.798;10.968;2023-04-26T04:59:45;98244.38;;;10.53;48.83
49973;BME280;65693;49.798;10.968;2023-04-26T05:02:12;98247.03;;;10.53;48.54
49973;BME280;65693;49.798;10.968;2023-04-26T05:04:38;98242.69;;;10.52;48.66
49973;BME280;65693;49.798;10.968;2023-04-26T05:07:06;98248.81;;;10.53;48.66
49973;BME280;65693;49.798;10.968;2023-04-26T05:09:33;98254.09;;;10.53;48.56
49973;BME280;65693;49.798;10.968;2023-04-26T05:12:01;98249.75;;;10.52;48.87
49973;BME280;65693;49.798;10.968;2023-04-26T05:14:28;98256.00;;;10.51;48.87
49973;BME280;65693;49.798;10.968;2023-04-26T05:16:55;98262.19;;;10.51;48.89
49973;BME280;65693;49.798;10.968;2023-04-26T05:19:21;98263.13;;;10.50;48.69
49973;BME280;65693;49.798;10.968;2023-04-26T05:21:48;98267.56;;;10.50;49.14
49973;BME280;65693;49.798;10.968;2023-04-26T05:24:15;98272.78;;;10.51;48.85
49973;BME280;65693;49.798;10.968;2023-04-26T05:26:42;98270.22;;;10.50;49.09
49973;BME280;65693;49.798;10.968;2023-04-26T05:29:22;98271.16;;;10.49;49.16
49973;BME280;65693;49.798;10.968;2023-04-26T05:31:48;98268.59;;;10.47;49.08
49973;BME280;65693;49.798;10.968;2023-04-26T05:34:15;98263.28;;;10.47;49.07
49973;BME280;65693;49.798;10.968;2023-04-26T05:36:41;98271.16;;;10.49;48.93
49973;BME280;65693;49.798;10.968;2023-04-26T05:39:08;98268.72;;;10.46;49.03
49973;BME280;65693;49.798;10.968;2023-04-26T05:41:36;98268.72;;;10.46;49.23
49973;BME280;65693;49.798;10.968;2023-04-26T05:44:02;98276.53;;;10.47;49.10
49973;BME280;65693;49.798;10.968;2023-04-26T05:46:29;98270.50;;;10.45;48.96
49973;BME280;65693;49.798;10.968;2023-04-26T05:48:55;98270.59;;;10.44;49.24
49973;BME280;65693;49.798;10.968;2023-04-26T05:51:22;98273.13;;;10.45;49.10
49973;BME280;65693;49.798;10.968;2023-04-26T05:53:48;98280.13;;;10.46;49.00
49973;BME280;65693;49.798;10.968;2023-04-26T05:56:15;98282.97;;;10.43;49.12
49973;BME280;65693;49.798;10.968;2023-04-26T05:58:42;98288.28;;;10.43;49.09
49973;BME280;65693;49.798;10.968;2023-04-26T06:01:09;98292.63;;;10.44;49.16
49973;BME280;65693;49.798;10.968;2023-04-26T06:03:36;98292.63;;;10.44;49.19
49973;BME280;65693;49.798;10.968;2023-04-26T06:06:03;98290.94;;;10.43;49.15
49973;BME280;65693;49.798;10.968;2023-04-26T06:08:29;98291.88;;;10.42;49.10
49973;BME280;65693;49.798;10.968;2023-04-26T06:10:56;98294.53;;;10.42;49.38
49973;BME280;65693;49.798;10.968;2023-04-26T06:13:22;98295.41;;;10.43;49.36
49973;BME280;65693;49.798;10.968;2023-04-26T06:15:51;98299.75;;;10.44;49.18
49973;BME280;65693;49.798;10.968;2023-04-26T06:18:18;98297.09;;;10.44;49.40
49973;BME280;65693;49.798;10.968;2023-04-26T06:20:45;98296.22;;;10.43;49.09
49973;BME280;65693;49.798;10.968;2023-04-26T06:23:12;98301.44;;;10.45;49.28
49973;BME280;65693;49.798;10.968;2023-04-26T06:25:39;98302.41;;;10.44;49.26
49973;BME280;65693;49.798;10.968;2023-04-26T06:28:09;98298.81;;;10.45;49.27
49973;BME280;65693;49.798;10.968;2023-04-26T06:30:35;98295.28;;;10.44;49.27
49973;BME280;65693;49.798;10.968;2023-04-26T06:33:03;98294.34;;;10.45;49.19
49973;BME280;65693;49.798;10.968;2023-04-26T06:35:29;98289.03;;;10.45;49.39
49973;BME280;65693;49.798;10.968;2023-04-26T06:37:56;98291.59;;;10.47;48.83
49973;BME280;65693;49.798;10.968;2023-04-26T06:40:22;98294.34;;;10.45;49.44
49973;BME280;65693;49.798;10.968;2023-04-26T06:42:49;98298.69;;;10.46;49.19
49973;BME280;65693;49.798;10.968;2023-04-26T06:45:16;98303.16;;;10.46;49.32
49973;BME280;65693;49.798;10.968;2023-04-26T06:47:43;98303.03;;;10.47;49.02
49973;BME280;65693;49.798;10.968;2023-04-26T06:50:11;98302.09;;;10.48;49.30
49973;BME280;65693;49.798;10.968;2023-04-26T06:52:37;98299.56;;;10.47;49.12
49973;BME280;65693;49.798;10.968;2023-04-26T06:55:05;98302.19;;;10.47;49.09
49973;BME280;65693;49.798;10.968;2023-04-26T06:57:31;98297.75;;;10.47;49.33
49973;BME280;65693;49.798;10.968;2023-04-26T06:59:58;98296.03;;;10.46;49.33
49973;BME280;65693;49.798;10.968;2023-04-26T07:02:24;98306.63;;;10.46;49.29
49973;BME280;65693;49.798;10.968;2023-04-26T07:04:51;98302.19;;;10.47;48.99
49973;BME280;65693;49.798;10.968;2023-04-26T07:07:18;98299.63;;;10.45;49.32
49973;BME280;65693;49.798;10.968;2023-04-26T07:09:45;98310.16;;;10.47;49.14
49973;BME280;65693;49.798;10.968;2023-04-26T07:12:11;98308.34;;;10.47;48.91
49973;BME280;65693;49.798;10.968;2023-04-26T07:14:38;98299.44;;;10.48;49.20
49973;BME280;65693;49.798;10.968;2023-04-26T07:17:07;98296.03;;;10.46;49.18
49973;BME280;65693;49.798;10.968;2023-04-26T07:19:33;98304.84;;;10.47;49.14
49973;BME280;65693;49.798;10.968;2023-04-26T07:22:00;98292.56;;;10.46;49.24
49973;BME280;65693;49.798;10.968;2023-04-26T07:24:28;98300.38;;;10.47;49.18
49973;BME280;65693;49.798;10.968;2023-04-26T07:26:55;98301.34;;;10.46;49.14
49973;BME280;65693;49.798;10.968;2023-04-26T07:29:22;98302.19;;;10.47;49.16
49973;BME280;65693;49.798;10.968;2023-04-26T07:31:48;98306.56;;;10.48;49.04
49973;BME280;65693;49.798;10.968;2023-04-26T07:34:15;98306.63;;;10.46;49.34
49973;BME280;65693;49.798;10.968;2023-04-26T07:36:41;98309.41;;;10.45;49.05
49973;BME280;65693;49.798;10.968;2023-04-26T07:39:07;98307.59;;;10.45;48.98
49973;BME280;65693;49.798;10.968;2023-04-26T07:41:36;98306.63;;;10.46;49.14
49973;BME280;65693;49.798;10.968;2023-04-26T07:44:03;98310.16;;;10.47;49.17
49973;BME280;65693;49.798;10.968;2023-04-26T07:46:29;98307.31;;;10.50;48.96
49973;BME280;65693;49.798;10.968;2023-04-26T07:48:57;98302.09;;;10.48;49.02
49973;BME280;65693;49.798;10.968;2023-04-26T07:51:24;98299.44;;;10.48;49.24
49973;BME280;65693;49.798;10.968;2023-04-26T07:53:51;98303.72;;;10.51;49.06
49973;BME280;65693;49.798;10.968;2023-04-26T07:56:20;98299.28;;;10.51;49.12
49973;BME280;65693;49.798;10.968;2023-04-26T07:58:49;98301.06;;;10.51;49.05
49973;BME280;65693;49.798;10.968;2023-04-26T08:01:16;98302.75;;;10.52;49.22
49973;BME280;65693;49.798;10.968;2023-04-26T08:03:42;98299.16;;;10.53;49.13
49973;BME280;65693;49.798;10.968;2023-04-26T08:06:09;98310.50;;;10.55;48.98
49973;BME280;65693;49.798;10.968;2023-04-26T08:08:36;98307.09;;;10.53;49.30
49973;BME280;65693;49.798;10.968;2023-04-26T08:11:07;98308.72;;;10.56;49.12
49973;BME280;65693;49.798;10.968;2023-04-26T08:13:34;98313.00;;;10.58;49.00
49973;BME280;65693;49.798;10.968;2023-04-26T08:16:01;98327.06;;;10.59;49.10
49973;BME280;65693;49.798;10.968;2023-04-26T08:18:28;98319.13;;;10.59;49.19
49973;BME280;65693;49.798;10.968;2023-04-26T08:20:54;98313.16;;;10.55;49.11
49973;BME280;65693;49.798;10.968;2023-04-26T08:23:21;98312.22;;;10.56;49.05
49973;BME280;65693;49.798;10.968;2023-04-26T08:25:47;98314.03;;;10.56;49.08
49973;BME280;65693;49.798;10.968;2023-04-26T08:28:15;98312.13;;;10.58;49.13
49973;BME280;65693;49.798;10.968;2023-04-26T08:30:41;98316.56;;;10.57;49.02
49973;BME280;65693;49.798;10.968;2023-04-26T08:33:09;98320.09;;;10.58;49.16
49973;BME280;65693;49.798;10.968;2023-04-26T08:35:35;98313.91;;;10.57;49.15
49973;BME280;65693;49.798;10.968;2023-04-26T08:38:02;98312.22;;;10.56;49.08
49973;BME280;65693;49.798;10.968;2023-04-26T08:40:28;98318.38;;;10.57;49.35
49973;BME280;65693;49.798;10.968;2023-04-26T08:42:55;98313.84;;;10.59;48.98
49973;BME280;65693;49.798;10.968;2023-04-26T08:45:23;98322.72;;;10.58;49.16
49973;BME280;65693;49.798;10.968;2023-04-26T08:47:52;98315.53;;;10.60;48.83
49973;BME280;65693;49.798;10.968;2023-04-26T08:50:21;98308.34;;;10.62;49.18
49973;BME280;65693;49.798;10.968;2023-04-26T08:52:49;98308.44;;;10.60;49.13
49973;BME280;65693;49.798;10.968;2023-04-26T08:55:17;98300.28;;;10.63;49.13
49973;BME280;65693;49.798;10.968;2023-04-26T08:57:45;98310.16;;;10.61;49.24
49973;BME280;65693;49.798;10.968;2023-04-26T09:00:13;98297.84;;;10.60;49.06
49973;BME280;65693;49.798;10.968;2023-04-26T09:02:40;98300.38;;;10.62;49.15
49973;BME280;65693;49.798;10.968;2023-04-26T09:05:08;98294.25;;;10.61;48.97
49973;BME280;65693;49.798;10.968;2023-04-26T09:07:39;98292.44;;;10.62;48.97
49973;BME280;65693;49.798;10.968;2023-04-26T09:10:06;98292.44;;;10.62;48.99
49973;BME280;65693;49.798;10.968;2023-04-26T09:12:34;98295.94;;;10.62;49.02
49973;BME280;65693;49.798;10.968;2023-04-26T09:15:00;98286.19;;;10.63;49.13
49973;BME280;65693;49.798;10.968;2023-04-26T09:17:30;98290.66;;;10.62;48.99
49973;BME280;65693;49.798;10.968;2023-04-26T09:19:57;98295.00;;;10.63;49.20
49973;BME280;65693;49.798;10.968;2023-04-26T09:22:29;98291.41;;;10.64;48.86
49973;BME280;65693;49.798;10.968;2023-04-26T09:24:57;98293.09;;;10.65;48.91
49973;BME280;65693;49.798;10.968;2023-04-26T09:27:31;98291.28;;;10.66;48.78
49973;BME280;65693;49.798;10.968;2023-04-26T09:30:02;98293.09;;;10.65;48.76
49973;BME280;65693;49.798;10.968;2023-04-26T09:32:42;98280.69;;;10.66;48.96
49973;BME280;65693;49.798;10.968;2023-04-26T09:35:19;98285.06;;;10.67;48.97
49973;BME280;65693;49.798;10.968;2023-04-26T09:37:50;98285.97;;;10.66;48.92
49973;BME280;65693;49.798;10.968;2023-04-26T09:40:19;98285.97;;;10.66;49.17
49973;BME280;65693;49.798;10.968;2023-04-26T09:42:55;98284.13;;;10.68;48.92
49973;BME280;65693;49.798;10.968;2023-04-26T09:45:22;98282.28;;;10.68;48.64
49973;BME280;65693;49.798;10.968;2023-04-26T09:47:48;98280.50;;;10.69;48.90
49973;BME280;65693;49.798;10.968;2023-04-26T09:50:24;98286.66;;;10.70;48.54
49973;BME280;65693;49.798;10.968;2023-04-26T09:52:51;98287.59;;;10.68;48.99
49973;BME280;65693;49.798;10.968;2023-04-26T09:55:26;98285.72;;;10.71;48.69
49973;BME280;65693;49.798;10.968;2023-04-26T09:57:53;98282.28;;;10.68;48.87
49973;BME280;65693;49.798;10.968;2023-04-26T10:00:20;98283.16;;;10.69;49.02
49973;BME280;65693;49.798;10.968;2023-04-26T10:02:47;98281.28;;;10.71;48.95
49973;BME280;65693;49.798;10.968;2023-04-26T10:05:14;98282.13;;;10.72;49.08
49973;BME280;65693;49.798;10.968;2023-04-26T10:07:41;98281.09;;;10.74;48.72
49973;BME280;65693;49.798;10.968;2023-04-26T10:10:09;98284.69;;;10.73;48.75
49973;BME280;65693;49.798;10.968;2023-04-26T10:12:39;98278.53;;;10.73;48.79
49973;BME280;65693;49.798;10.968;2023-04-26T10:15:08;98276.75;;;10.73;48.84
49973;BME280;65693;49.798;10.968;2023-04-26T10:17:35;98277.69;;;10.72;49.02
49973;BME280;65693;49.798;10.968;2023-04-26T10:20:03;98278.34;;;10.76;48.85
49973;BME280;65693;49.798;10.968;2023-04-26T10:22:39;98274.00;;;10.75;48.73
49973;BME280;65693;49.798;10.968;2023-04-26T10:25:08;98272.00;;;10.78;48.86
49973;BME280;65693;49.798;10.968;2023-04-26T10:27:51;98273.81;;;10.78;48.88
49973;BME280;65693;49.798;10.968;2023-04-26T10:30:19;98273.88;;;10.76;48.88
49973;BME280;65693;49.798;10.968;2023-04-26T10:33:20;98270.28;;;10.77;48.69
49973;BME280;65693;49.798;10.968;2023-04-26T10:36:08;98271.03;;;10.79;48.53
49973;BME280;65693;49.798;10.968;2023-04-26T10:38:36;98266.69;;;10.78;48.38
49973;BME280;65693;49.798;10.968;2023-04-26T10:41:34;98276.25;;;10.81;48.51
49973;BME280;65693;49.798;10.968;2023-04-26T10:47:04;98275.38;;;10.80;48.66
49973;BME280;65693;49.798;10.968;2023-04-26T10:49:42;98267.44;;;10.80;48.52
49973;BME280;65693;49.798;10.968;2023-04-26T10:52:11;98268.31;;;10.81;48.57
49973;BME280;65693;49.798;10.968;2023-04-26T10:54:55;98269.13;;;10.81;48.23
49973;BME280;65693;49.798;10.968;2023-04-26T10:57:23;98261.19;;;10.81;48.33
49973;BME280;65693;49.798;10.968;2023-04-26T11:00:16;98263.75;;;10.83;48.15
49973;BME280;65693;49.798;10.968;2023-04-26T11:02:52;98261.97;;;10.84;48.51
49973;BME280;65693;49.798;10.968;2023-04-26T11:05:36;98266.31;;;10.85;48.85
49973;BME280;65693;49.798;10.968;2023-04-26T11:08:04;98264.41;;;10.87;48.42
49973;BME280;65693;49.798;10.968;2023-04-26T11:10:30;98259.09;;;10.87;48.55
49973;BME280;65693;49.798;10.968;2023-04-26T11:13:01;98261.75;;;10.87;48.62
49973;BME280;65693;49.798;10.968;2023-04-26T11:15:28;98254.56;;;10.89;48.62
49973;BME280;65693;49.798;10.968;2023-04-26T11:17:57;98257.00;;;10.92;48.46
49973;BME280;65693;49.798;10.968;2023-04-26T11:20:27;98261.56;;;10.90;48.44
49973;BME280;65693;49.798;10.968;2023-04-26T11:22:55;98251.69;;;10.92;48.55
49973;BME280;65693;49.798;10.968;2023-04-26T11:25:23;98240.88;;;10.95;48.57
49973;BME280;65693;49.798;10.968;2023-04-26T11:27:50;98233.78;;;10.95;48.48
49973;BME280;65693;49.798;10.968;2023-04-26T11:30:17;98233.78;;;10.95;48.68
49973;BME280;65693;49.798;10.968;2023-04-26T11:32:44;98237.19;;;10.98;48.56
49973;BME280;65693;49.798;10.968;2023-04-26T11:35:12;98236.25;;;10.99;48.38
49973;BME280;65693;49.798;10.968;2023-04-26T11:37:39;98233.50;;;11.00;48.43
49973;BME280;65693;49.798;10.968;2023-04-26T11:40:09;98233.50;;;11.00;48.45
49973;BME280;65693;49.798;10.968;2023-04-26T11:42:36;98241.47;;;11.00;48.61
49973;BME280;65693;49.798;10.968;2023-04-26T11:45:03;98223.66;;;11.02;48.44
49973;BME280;65693;49.798;10.968;2023-04-26T11:47:31;98233.28;;;11.03;48.54
49973;BME280;65693;49.798;10.968;2023-04-26T11:49:59;98228.81;;;11.04;48.50
49973;BME280;65693;49.798;10.968;2023-04-26T11:52:28;98223.44;;;11.05;48.64
49973;BME280;65693;49.798;10.968;2023-04-26T11:55:01;98220.66;;;11.07;48.51
49973;BME280;65693;49.798;10.968;2023-04-26T11:57:30;98226.84;;;11.07;48.58
49973;BME280;65693;49.798;10.968;2023-04-26T12:00:07;98220.56;;;11.08;48.49
49973;BME280;65693;49.798;10.968;2023-04-26T12:02:34;98222.28;;;11.09;48.53
49973;BME280;65693;49.798;10.968;2023-04-26T12:05:01;98216.00;;;11.10;48.39
49973;BME280;65693;49.798;10.968;2023-04-26T12:07:33;98232.88;;;11.09;48.64
49973;BME280;65693;49.798;10.968;2023-04-26T12:10:13;98230.97;;;11.12;48.57
49973;BME280;65693;49.798;10.968;2023-04-26T12:12:43;98229.19;;;11.12;48.35
49973;BME280;65693;49.798;10.968;2023-04-26T12:15:11;98230.88;;;11.13;48.47
49973;BME280;65693;49.798;10.968;2023-04-26T12:17:37;98225.38;;;11.16;48.62
49973;BME280;65693;49.798;10.968;2023-04-26T12:20:08;98218.28;;;11.17;48.43
49973;BME280;65693;49.798;10.968;2023-04-26T12:22:36;98222.63;;;11.18;48.47
49973;BME280;65693;49.798;10.968;2023-04-26T12:25:04;98222.50;;;11.19;48.41
49973;BME280;65693;49.798;10.968;2023-04-26T12:27:30;98220.72;;;11.20;48.45
49973;BME280;65693;49.798;10.968;2023-04-26T12:29:57;98217.13;;;11.21;48.53
49973;BME280;65693;49.798;10.968;2023-04-26T12:32:24;98220.31;;;11.26;48.28
49973;BME280;65693;49.798;10.968;2023-04-26T12:34:51;98217.78;;;11.24;48.56
49973;BME280;65693;49.798;10.968;2023-04-26T12:37:17;98220.31;;;11.26;48.63
49973;BME280;65693;49.798;10.968;2023-04-26T12:39:45;98216.81;;;11.26;48.62
49973;BME280;65693;49.798;10.968;2023-04-26T12:42:12;98217.78;;;11.24;48.54
49973;BME280;65693;49.798;10.968;2023-04-26T12:44:38;98220.22;;;11.28;48.42
49973;BME280;65693;49.798;10.968;2023-04-26T12:47:07;98213.22;;;11.27;48.67
49973;BME280;65693;49.798;10.968;2023-04-26T12:49:33;98220.22;;;11.28;48.58
49973;BME280;65693;49.798;10.968;2023-04-26T12:52:00;98219.06;;;11.32;48.44
49973;BME280;65693;49.798;10.968;2023-04-26T12:54:27;98210.44;;;11.28;48.53
49973;BME280;65693;49.798;10.968;2023-04-26T12:56:54;98212.13;;;11.29;48.54